createdAt,value
2024-05-09T00:13:35.665Z,87.79
2024-05-09T00:28:35.305Z,87.90
2024-05-09T00:43:35.145Z,87.55
2024-05-09T00:58:34.991Z,87.53
2024-05-09T01:13:34.795Z,87.25
2024-05-09T01:28:34.652Z,87.52
2024-05-09T01:43:34.481Z,87.31
2024-05-09T01:58:34.332Z,87.38
2024-05-09T02:13:34.171Z,87.09
2024-05-09T02:28:33.992Z,87.40
2024-05-09T02:43:33.879Z,87.47
2024-05-09T02:58:33.870Z,87.60
2024-05-09T03:13:33.548Z,87.64
2024-05-09T03:28:33.375Z,87.71
2024-05-09T03:43:33.196Z,87.51
2024-05-09T03:58:33.038Z,87.33
2024-05-09T04:13:32.871Z,87.33
2024-05-09T04:28:32.904Z,86.86
2024-05-09T04:43:32.572Z,86.93
2024-05-09T04:58:32.420Z,85.90
2024-05-09T05:13:32.241Z,85.94
2024-05-09T05:28:32.042Z,84.45
2024-05-09T05:43:31.894Z,84.17
2024-05-09T05:58:33.672Z,82.34
2024-05-09T06:13:31.530Z,76.86
2024-05-09T06:28:31.463Z,70.05
2024-05-09T06:43:31.366Z,59.14
2024-05-09T06:58:31.099Z,57.46
2024-05-09T07:13:30.994Z,59.68
2024-05-09T07:28:31.565Z,67.60
2024-05-09T07:43:30.668Z,59.94
2024-05-09T07:58:30.516Z,59.90
2024-05-09T08:13:32.266Z,58.04
2024-05-09T08:28:30.296Z,62.56
2024-05-09T08:43:31.115Z,63.06
2024-05-09T08:58:29.965Z,62.61
2024-05-09T09:13:29.712Z,60.61
2024-05-09T09:28:29.839Z,59.19
2024-05-09T09:43:29.414Z,60.18
2024-05-09T09:58:29.395Z,58.17
2024-05-09T10:13:29.358Z,59.33
2024-05-09T10:28:28.924Z,60.46
2024-05-09T10:43:28.855Z,59.21
2024-05-09T10:58:28.688Z,58.29
2024-05-09T11:13:42.843Z,58.58
2024-05-09T11:28:28.892Z,57.48
2024-05-09T11:43:29.293Z,58.81
2024-05-09T11:58:28.091Z,55.96
2024-05-09T12:13:27.977Z,57.04
2024-05-09T12:28:27.756Z,51.22
2024-05-09T12:43:27.702Z,51.10
2024-05-09T12:58:27.456Z,48.95
2024-05-09T13:13:27.281Z,50.82
2024-05-09T13:28:27.163Z,48.85
2024-05-09T13:43:27.053Z,48.71
2024-05-09T13:58:26.946Z,50.64
2024-05-09T14:13:26.619Z,49.07
2024-05-09T14:28:26.595Z,46.47
2024-05-09T14:43:33.373Z,47.24
2024-05-09T14:58:26.320Z,48.73
2024-05-09T15:13:26.109Z,50.03
2024-05-09T15:28:25.886Z,53.21
2024-05-09T15:43:25.840Z,49.15
2024-05-09T15:58:25.615Z,50.32
2024-05-09T16:13:25.372Z,47.51
2024-05-09T16:28:27.068Z,50.94
2024-05-09T16:43:25.239Z,51.87
2024-05-09T16:58:25.912Z,53.79
2024-05-09T17:13:24.858Z,52.86
2024-05-09T17:28:24.595Z,52.62
2024-05-09T17:43:24.955Z,52.30
2024-05-09T17:58:24.714Z,56.45
2024-05-09T18:13:24.194Z,59.20
2024-05-09T18:28:24.013Z,63.43
2024-05-09T18:43:28.777Z,64.66
2024-05-09T18:58:24.638Z,65.21
2024-05-09T19:13:23.514Z,67.87
2024-05-09T19:28:23.603Z,68.12
2024-05-09T19:43:23.217Z,69.72
2024-05-09T19:58:25.083Z,71.97
2024-05-09T20:13:22.896Z,72.02
2024-05-09T20:28:22.802Z,72.64
2024-05-09T20:43:22.630Z,74.26
2024-05-09T20:58:23.901Z,75.09
2024-05-09T21:13:22.401Z,76.79
2024-05-09T21:28:22.018Z,78.56
2024-05-09T21:43:22.067Z,78.47
2024-05-09T21:58:21.952Z,79.54
2024-05-09T22:13:21.977Z,79.08
2024-05-09T22:28:22.543Z,79.75
2024-05-09T22:43:25.012Z,79.94
2024-05-09T22:58:21.210Z,80.01
2024-05-09T23:13:21.165Z,80.44
2024-05-09T23:28:20.878Z,80.54
2024-05-09T23:43:20.873Z,80.86
2024-05-09T23:58:21.436Z,81.80
